Time;durP1;ratioP1;P1;durP2;ratioP2;P2;SDS_P1;SDS_P2;PMS_P1;PMS_P2;Temp;Humidity;BMP_temperature;BMP_pressure;BME280_temperature;BME280_humidity;BME280_pressure;Samples;Min_cycle;Max_cycle;Signal;HPM_P1;HPM_P2
2023/11/22 00:02:04;;;;;;;1.35;1.25;;;;;;;6.36;84.22;102063.63;4959078;28;20489;-74
2023/11/22 00:04:29;;;;;;;2.05;1.83;;;;;;;6.34;83.81;102071.13;4971736;28;20038;-73
2023/11/22 00:06:54;;;;;;;2.85;1.13;;;;;;;6.34;84.26;102073.00;4989963;28;20109;-74
2023/11/22 00:09:22;;;;;;;1.10;1.08;;;;;;;6.36;83.41;102062.81;4988259;28;20468;-72
2023/11/22 00:11:48;;;;;;;1.30;0.77;;;;;;;6.35;83.74;102066.56;4987539;28;20037;-74
2023/11/22 00:14:14;;;;;;;1.88;0.88;;;;;;;6.26;84.03;102074.47;4974898;28;20690;-73
2023/11/22 00:16:39;;;;;;;0.98;0.70;;;;;;;6.27;83.71;102072.59;4991127;28;20412;-74
2023/11/22 00:19:06;;;;;;;0.73;0.73;;;;;;;6.18;83.60;102071.63;4980722;28;20124;-73
2023/11/22 00:21:32;;;;;;;2.65;1.55;;;;;;;6.19;83.47;102083.94;4970928;28;20027;-74
2023/11/22 00:24:00;;;;;;;1.60;1.35;;;;;;;6.13;83.42;102087.75;4971884;28;20141;-74
2023/11/22 00:26:25;;;;;;;2.20;1.13;;;;;;;6.15;83.27;102078.38;4992940;28;20037;-74
2023/11/22 00:28:56;;;;;;;0.70;0.70;;;;;;;6.15;83.20;102069.56;4974579;28;20035;-73
2023/11/22 00:31:21;;;;;;;1.65;1.30;;;;;;;6.06;83.39;102066.72;4972449;28;20041;-73
2023/11/22 00:33:47;;;;;;;1.13;0.90;;;;;;;6.05;83.58;102067.03;4975321;28;20027;-73
2023/11/22 00:36:12;;;;;;;1.63;1.15;;;;;;;6.02;83.97;102070.28;5005426;28;20027;-72
2023/11/22 00:38:39;;;;;;;1.90;1.13;;;;;;;6.00;83.53;102064.44;4989786;28;20092;-73
2023/11/22 00:41:05;;;;;;;1.98;1.02;;;;;;;6.06;82.73;102064.06;4990008;28;20045;-73
2023/11/22 00:43:33;;;;;;;4.03;1.33;;;;;;;5.97;82.92;102065.78;4986780;28;20026;-73
2023/11/22 00:45:59;;;;;;;2.05;1.05;;;;;;;5.94;83.45;102076.28;4992580;28;20058;-73
2023/11/22 00:48:24;;;;;;;1.33;0.85;;;;;;;5.93;83.36;102086.16;4989208;28;20126;-72
2023/11/22 00:50:50;;;;;;;0.95;0.70;;;;;;;5.89;83.40;102095.84;4986676;28;20033;-73
2023/11/22 00:53:17;;;;;;;1.25;1.02;;;;;;;5.90;83.70;102115.34;4973339;28;20110;-73
2023/11/22 00:55:42;;;;;;;1.08;0.90;;;;;;;5.87;83.56;102113.22;4985717;28;20037;-73
2023/11/22 00:58:09;;;;;;;1.88;1.20;;;;;;;5.84;83.72;102119.16;4985283;28;20038;-73
2023/11/22 01:00:34;;;;;;;2.25;1.35;;;;;;;5.83;83.41;102126.38;4995393;28;20121;-73
2023/11/22 01:03:00;;;;;;;4.40;1.77;;;;;;;5.82;83.17;102129.31;4987093;28;20092;-73
2023/11/22 01:05:25;;;;;;;3.20;2.03;;;;;;;5.78;83.30;102142.47;4990156;28;20026;-73
2023/11/22 01:07:51;;;;;;;1.83;1.50;;;;;;;5.74;83.71;102141.44;4984239;28;20099;-73
2023/11/22 01:10:16;;;;;;;3.15;1.48;;;;;;;5.74;83.56;102148.66;4979092;28;20061;-73
2023/11/22 01:12:42;;;;;;;2.38;1.30;;;;;;;5.73;83.81;102137.16;4991603;28;20026;-74
2023/11/22 01:15:08;;;;;;;2.15;1.08;;;;;;;5.70;83.45;102135.06;4990466;28;20039;-74
2023/11/22 01:17:34;;;;;;;5.53;1.33;;;;;;;5.71;83.28;102142.00;4990054;28;20027;-73
2023/11/22 01:20:01;;;;;;;3.47;2.10;;;;;;;5.66;83.23;102139.38;4969410;28;20441;-74
2023/11/22 01:22:27;;;;;;;3.47;2.22;;;;;;;5.65;83.61;102137.00;4988053;28;20501;-73
2023/11/22 01:24:52;;;;;;;4.38;2.03;;;;;;;5.70;83.13;102123.56;4989829;28;20080;-74
2023/11/22 01:27:18;;;;;;;4.10;1.67;;;;;;;5.59;82.83;102130.94;4985043;28;20041;-73
2023/11/22 01:29:43;;;;;;;4.32;2.15;;;;;;;5.58;82.91;102131.19;4984832;28;20035;-74
2023/11/22 01:32:09;;;;;;;1.58;1.48;;;;;;;5.52;82.69;102135.03;4989001;28;20100;-73
2023/11/22 01:34:38;;;;;;;0.77;0.77;;;;;;;5.48;83.83;102127.56;4993986;28;20042;-73
2023/11/22 01:37:03;;;;;;;2.85;0.70;;;;;;;5.53;83.40;102131.25;4972922;28;20101;-73
2023/11/22 01:39:29;;;;;;;2.80;0.90;;;;;;;5.49;83.15;102133.72;4992926;28;20038;-73
2023/11/22 01:41:56;;;;;;;1.48;0.90;;;;;;;5.48;83.50;102129.44;4989504;28;20030;-72
2023/11/22 01:44:21;;;;;;;1.45;1.00;;;;;;;5.48;83.95;102127.56;4989679;28;20111;-73
2023/11/22 01:46:47;;;;;;;3.75;1.17;;;;;;;5.46;84.29;102132.38;4990564;28;20022;-71
2023/11/22 01:49:13;;;;;;;1.08;0.98;;;;;;;5.43;83.40;102137.50;4987237;28;20076;-73
2023/11/22 01:51:39;;;;;;;0.70;0.68;;;;;;;5.39;83.75;102137.28;4988543;28;20093;-72
2023/11/22 01:54:08;;;;;;;1.20;0.57;;;;;;;5.40;83.38;102140.75;4990553;28;20036;-73
2023/11/22 01:56:37;;;;;;;3.45;1.10;;;;;;;5.34;83.08;102137.31;4988263;28;20030;-73
2023/11/22 01:59:03;;;;;;;2.08;1.38;;;;;;;5.34;83.58;102139.97;4985607;28;20041;-74
2023/11/22 02:01:29;;;;;;;1.30;0.80;;;;;;;5.28;83.81;102133.09;4980998;28;20034;-73
2023/11/22 02:03:55;;;;;;;1.42;1.00;;;;;;;5.30;83.62;102130.94;4977944;28;20080;-73
2023/11/22 02:06:24;;;;;;;0.73;0.73;;;;;;;5.29;83.64;102136.56;4996721;28;20038;-73
2023/11/22 02:08:50;;;;;;;0.95;0.85;;;;;;;5.32;83.26;102128.78;4990462;28;20030;-75
2023/11/22 02:11:21;;;;;;;2.13;0.90;;;;;;;5.27;83.21;102128.84;4993695;28;20030;-73
2023/11/22 02:13:49;;;;;;;1.23;1.08;;;;;;;5.25;83.40;102136.34;4981960;28;20027;-74
2023/11/22 02:16:17;;;;;;;1.67;0.95;;;;;;;5.19;83.44;102136.66;4995057;28;20401;-73
2023/11/22 02:18:45;;;;;;;1.40;0.82;;;;;;;5.14;82.81;102134.88;4990381;28;20401;-74
2023/11/22 02:21:10;;;;;;;2.13;1.25;;;;;;;5.11;83.65;102142.63;4996706;28;20401;-72
2023/11/22 02:23:36;;;;;;;1.52;0.70;;;;;;;5.16;83.07;102148.72;4989455;28;20042;-74
2023/11/22 02:26:02;;;;;;;1.67;1.13;;;;;;;5.17;83.02;102146.81;4986881;28;20030;-71
2023/11/22 02:28:28;;;;;;;2.58;1.13;;;;;;;5.16;83.01;102156.75;4984432;28;20034;-73
2023/11/22 02:30:54;;;;;;;0.93;0.70;;;;;;;5.11;83.39;102156.75;4976625;28;20052;-73
2023/11/22 02:33:21;;;;;;;1.75;1.10;;;;;;;5.03;83.89;102167.25;4989874;28;20038;-73
2023/11/22 02:35:47;;;;;;;1.50;1.00;;;;;;;5.05;83.82;102173.13;4995090;28;20413;-73
2023/11/22 02:38:12;;;;;;;1.73;1.08;;;;;;;5.03;83.47;102161.94;4975602;28;20561;-73
2023/11/22 02:40:37;;;;;;;1.33;0.85;;;;;;;5.05;83.78;102181.13;4978462;28;20069;-74
2023/11/22 02:43:08;;;;;;;0.93;0.70;;;;;;;5.07;83.34;102184.31;4973292;28;20553;-72
2023/11/22 02:45:38;;;;;;;0.55;0.55;;;;;;;5.04;83.95;102184.84;4975857;28;20057;-73
2023/11/22 02:48:09;;;;;;;1.50;0.90;;;;;;;5.04;83.92;102193.66;4965911;28;20520;-73
2023/11/22 02:50:35;;;;;;;1.02;0.93;;;;;;;5.00;83.49;102197.16;4992043;28;20038;-74
2023/11/22 02:53:05;;;;;;;0.95;0.95;;;;;;;5.00;84.14;102197.16;4989850;28;20039;-73
2023/11/22 02:55:31;;;;;;;1.33;0.98;;;;;;;5.01;83.93;102191.56;4987294;28;20670;-71
2023/11/22 02:57:56;;;;;;;1.70;0.82;;;;;;;5.00;83.52;102197.97;4991387;28;20523;-73
2023/11/22 03:00:22;;;;;;;1.00;0.77;;;;;;;4.95;83.50;102190.00;4972892;28;20498;-72
2023/11/22 03:02:53;;;;;;;1.13;1.02;;;;;;;4.98;83.37;102197.44;4992312;28;20030;-73
2023/11/22 03:05:20;;;;;;;0.82;0.73;;;;;;;4.95;83.42;102198.03;4970264;28;20041;-73
2023/11/22 03:07:46;;;;;;;1.13;0.75;;;;;;;4.92;83.63;102205.75;4958303;28;20030;-73
2023/11/22 03:10:12;;;;;;;1.50;1.10;;;;;;;4.94;83.77;102201.75;4997043;28;20045;-73
2023/11/22 03:12:38;;;;;;;2.10;0.90;;;;;;;4.92;83.37;102211.09;4975271;28;20069;-74
2023/11/22 03:15:05;;;;;;;1.25;1.15;;;;;;;4.95;82.99;102219.38;4974756;28;20454;-72
2023/11/22 03:17:32;;;;;;;0.90;0.55;;;;;;;4.94;83.06;102212.44;4986942;28;20058;-72
2023/11/22 03:19:58;;;;;;;1.50;1.02;;;;;;;4.92;82.91;102217.25;4972684;28;20042;-73
2023/11/22 03:22:24;;;;;;;2.38;1.13;;;;;;;4.87;83.62;102203.94;4989626;28;20218;-74
2023/11/22 03:24:50;;;;;;;5.80;2.00;;;;;;;4.85;84.33;102203.44;4979073;28;20030;-73
2023/11/22 03:27:15;;;;;;;1.45;1.23;;;;;;;4.87;83.18;102206.63;4972774;28;20074;-73
2023/11/22 03:29:41;;;;;;;1.13;0.90;;;;;;;4.79;83.34;102204.53;4957214;28;20054;-73
2023/11/22 03:32:06;;;;;;;6.13;1.42;;;;;;;4.87;83.11;102203.16;4991404;28;20473;-73
2023/11/22 03:34:32;;;;;;;1.45;0.90;;;;;;;4.82;83.09;102203.97;4985305;28;20105;-72
2023/11/22 03:36:58;;;;;;;1.90;1.25;;;;;;;4.78;83.68;102212.81;4988605;28;20109;-72
2023/11/22 03:39:24;;;;;;;1.33;1.00;;;;;;;4.74;83.89;102212.59;4989591;28;20034;-73
2023/11/22 03:41:50;;;;;;;1.30;1.20;;;;;;;4.77;83.89;102228.03;5002680;28;20045;-73
2023/11/22 03:44:16;;;;;;;2.17;1.27;;;;;;;4.76;84.26;102225.66;4989970;28;20453;-73
2023/11/22 03:46:42;;;;;;;2.63;1.58;;;;;;;4.74;84.21;102231.25;4990986;28;20040;-72
2023/11/22 03:49:08;;;;;;;2.20;1.20;;;;;;;4.75;84.47;102232.84;4989414;28;20031;-72
2023/11/22 03:51:38;;;;;;;1.00;0.93;;;;;;;4.70;84.65;102226.75;4988184;28;20057;-73
2023/11/22 03:54:04;;;;;;;1.80;0.82;;;;;;;4.67;84.01;102222.75;4992998;28;20166;-73
2023/11/22 03:56:30;;;;;;;1.08;0.80;;;;;;;4.55;84.42;102233.75;4992484;28;20057;-73
2023/11/22 03:58:56;;;;;;;2.15;1.35;;;;;;;4.66;84.58;102231.03;4991257;28;20030;-74
2023/11/22 04:01:22;;;;;;;1.13;1.05;;;;;;;4.62;83.92;102236.13;4993709;28;20034;-73
2023/11/22 04:03:48;;;;;;;1.73;1.63;;;;;;;4.62;84.02;102246.78;4992347;28;20022;-73
2023/11/22 04:06:15;;;;;;;1.48;1.38;;;;;;;4.50;84.05;102248.97;4986239;28;20125;-74
2023/11/22 04:08:43;;;;;;;1.92;0.95;;;;;;;4.58;84.96;102243.88;4996297;28;20026;-73
2023/11/22 04:11:10;;;;;;;1.77;1.20;;;;;;;4.69;83.93;102249.13;4993310;28;20470;-74
2023/11/22 04:13:38;;;;;;;2.10;1.10;;;;;;;4.62;84.50;102262.81;4994460;28;20026;-73
2023/11/22 04:16:08;;;;;;;1.27;1.17;;;;;;;4.60;84.33;102259.59;4994723;28;20033;-73
2023/11/22 04:18:35;;;;;;;1.92;1.20;;;;;;;4.59;84.58;102261.47;4992142;28;20042;-72
2023/11/22 04:21:01;;;;;;;1.38;0.82;;;;;;;4.58;84.43;102251.88;4992189;28;20033;-72
2023/11/22 04:23:27;;;;;;;1.80;1.00;;;;;;;4.64;83.84;102250.00;4991815;28;20109;-73
2023/11/22 04:25:52;;;;;;;0.80;0.80;;;;;;;4.59;83.95;102245.47;4989935;28;20113;-74
2023/11/22 04:28:18;;;;;;;1.48;1.38;;;;;;;4.58;84.32;102245.75;4989747;28;20045;-73
2023/11/22 04:30:43;;;;;;;2.75;1.25;;;;;;;4.47;83.78;102249.53;4991615;28;20118;-73
2023/11/22 04:33:11;;;;;;;0.85;0.85;;;;;;;4.47;84.59;102244.22;4987086;28;20121;-73
2023/11/22 04:35:38;;;;;;;1.95;1.67;;;;;;;4.42;84.17;102241.56;4996709;28;20113;-73
2023/11/22 04:38:04;;;;;;;2.70;1.67;;;;;;;4.52;84.28;102244.19;4990331;28;20026;-73
2023/11/22 04:40:30;;;;;;;1.95;1.05;;;;;;;4.56;83.08;102247.91;4991081;28;20157;-73
2023/11/22 04:42:55;;;;;;;1.10;1.00;;;;;;;4.50;83.70;102248.97;4992825;28;20030;-71
2023/11/22 04:45:21;;;;;;;1.83;1.25;;;;;;;4.41;84.01;102237.31;4988630;28;20111;-73
2023/11/22 04:47:46;;;;;;;1.90;1.50;;;;;;;4.35;84.39;102235.72;4988020;28;20137;-73
2023/11/22 04:50:12;;;;;;;1.27;1.15;;;;;;;4.44;84.09;102234.06;4992703;28;20030;-72
2023/11/22 04:52:39;;;;;;;1.77;1.15;;;;;;;4.40;84.44;102238.38;4991111;28;20383;-73
2023/11/22 04:55:04;;;;;;;1.08;0.68;;;;;;;4.37;84.36;102242.41;4989369;28;20513;-73
2023/11/22 04:57:30;;;;;;;1.48;1.38;;;;;;;4.33;84.67;102243.19;4991682;28;20030;-72
2023/11/22 04:59:55;;;;;;;1.60;1.35;;;;;;;4.37;84.68;102228.25;4989061;28;20643;-73
2023/11/22 05:02:21;;;;;;;3.28;1.73;;;;;;;4.33;84.66;102233.34;4987514;28;20034;-72
2023/11/22 05:04:48;;;;;;;1.38;1.13;;;;;;;4.30;83.86;102241.06;4991209;28;20034;-73
2023/11/22 05:07:15;;;;;;;1.40;1.23;;;;;;;4.27;84.43;102238.97;4984713;28;20436;-72
2023/11/22 05:09:41;;;;;;;1.92;1.35;;;;;;;4.27;84.37;102238.97;4987779;28;20078;-73
2023/11/22 05:12:06;;;;;;;1.38;1.08;;;;;;;4.31;84.50;102232.00;4991022;28;20045;-73
2023/11/22 05:14:32;;;;;;;2.40;1.33;;;;;;;4.36;82.98;102235.44;4990177;28;20045;-73
2023/11/22 05:16:57;;;;;;;1.80;1.10;;;;;;;4.26;83.15;102256.00;4987076;28;20034;-73
2023/11/22 05:19:23;;;;;;;2.80;1.25;;;;;;;4.15;84.62;102247.28;4990924;28;20130;-73
2023/11/22 05:21:48;;;;;;;1.23;1.13;;;;;;;4.14;84.30;102260.88;4976670;28;20142;-73
2023/11/22 05:24:15;;;;;;;2.22;1.70;;;;;;;4.17;84.65;102245.13;4991678;28;20038;-73
2023/11/22 05:26:40;;;;;;;1.30;1.17;;;;;;;4.14;84.45;102250.22;4973115;28;20034;-73
2023/11/22 05:29:06;;;;;;;2.53;1.08;;;;;;;4.12;84.72;102253.13;4989978;28;20046;-73
2023/11/22 05:31:31;;;;;;;2.30;1.17;;;;;;;4.12;84.49;102253.13;4988906;28;20038;-72
2023/11/22 05:33:57;;;;;;;2.15;1.05;;;;;;;4.09;85.08;102251.00;4991023;28;20049;-72
2023/11/22 05:36:22;;;;;;;0.77;0.77;;;;;;;4.19;85.01;102266.97;4976307;28;20026;-73
2023/11/22 05:38:48;;;;;;;2.72;1.05;;;;;;;4.21;84.20;102283.50;4992993;28;20626;-71
2023/11/22 05:41:13;;;;;;;1.25;1.10;;;;;;;4.18;84.14;102293.91;4976052;28;20041;-72
2023/11/22 05:43:39;;;;;;;1.42;1.13;;;;;;;4.13;84.01;102291.25;4990819;28;20045;-73
2023/11/22 05:46:05;;;;;;;1.27;1.17;;;;;;;4.07;84.45;102292.31;4991040;28;20038;-73
2023/11/22 05:48:30;;;;;;;1.42;0.88;;;;;;;4.05;84.71;102283.78;4964072;28;20089;-72
2023/11/22 05:50:55;;;;;;;1.85;1.30;;;;;;;4.14;83.83;102293.63;4996820;28;20038;-73
2023/11/22 05:53:21;;;;;;;1.23;1.08;;;;;;;4.19;83.02;102280.31;4979838;28;20113;-73
2023/11/22 05:55:48;;;;;;;2.47;0.95;;;;;;;4.06;83.84;102296.06;4988389;28;20049;-74
2023/11/22 05:58:16;;;;;;;2.85;1.98;;;;;;;4.13;84.21;102289.38;4992312;28;20038;-73
2023/11/22 06:00:50;;;;;;;1.77;1.67;;;;;;;4.00;83.87;102279.28;4975369;28;20552;-72
2023/11/22 06:03:16;;;;;;;1.75;1.20;;;;;;;3.87;84.59;102284.38;4977483;28;20039;-74
2023/11/22 06:05:42;;;;;;;2.25;1.73;;;;;;;3.80;85.40;102287.31;4975337;28;20026;-73
2023/11/22 06:08:09;;;;;;;3.22;2.65;;;;;;;3.85;85.51;102291.84;4967205;28;20027;-73
2023/11/22 06:10:34;;;;;;;5.35;3.20;;;;;;;3.84;85.30;102296.38;4988472;28;20026;-73
2023/11/22 06:13:00;;;;;;;3.92;2.63;;;;;;;3.79;85.65;102301.72;4988900;28;20052;-72
2023/11/22 06:15:25;;;;;;;4.93;2.83;;;;;;;3.84;85.76;102291.03;4988084;28;20046;-73
2023/11/22 06:17:50;;;;;;;3.38;2.22;;;;;;;3.81;85.55;102266.81;4974849;28;20049;-73
2023/11/22 06:20:16;;;;;;;2.00;1.70;;;;;;;3.83;85.93;102272.66;4985385;28;20111;-73
2023/11/22 06:22:42;;;;;;;5.60;1.83;;;;;;;3.81;85.79;102269.47;4969122;28;20030;-72
2023/11/22 06:25:12;;;;;;;2.72;1.75;;;;;;;3.89;85.59;102271.59;4971084;28;20038;-73
2023/11/22 06:27:38;;;;;;;3.13;1.10;;;;;;;3.93;84.68;102276.09;4996594;28;20034;-72
2023/11/22 06:30:04;;;;;;;2.28;1.38;;;;;;;3.99;84.82;102260.91;4972371;28;20037;-74
2023/11/22 06:32:29;;;;;;;2.83;1.63;;;;;;;3.99;85.31;102276.91;4974120;28;20564;-73
2023/11/22 06:34:54;;;;;;;3.58;1.67;;;;;;;3.97;85.09;102274.50;4980483;28;20042;-72
2023/11/22 06:37:20;;;;;;;2.10;1.52;;;;;;;4.02;83.66;102257.72;4990850;28;20031;-70
2023/11/22 06:39:46;;;;;;;1.95;1.25;;;;;;;3.98;84.30;102257.44;4990358;28;20128;-72
2023/11/22 06:42:13;;;;;;;1.00;1.00;;;;;;;4.01;84.76;102250.75;4959082;28;20034;-73
2023/11/22 06:44:39;;;;;;;1.73;1.17;;;;;;;4.06;84.72;102250.75;4971080;28;20562;-72
2023/11/22 06:47:07;;;;;;;1.35;1.05;;;;;;;4.07;84.06;102249.69;4985554;28;20124;-72
2023/11/22 06:49:33;;;;;;;2.20;1.20;;;;;;;4.13;84.12;102249.41;4990432;28;20373;-70
2023/11/22 06:51:58;;;;;;;1.33;1.02;;;;;;;4.06;84.98;102264.09;4978499;28;20037;-72
2023/11/22 06:54:24;;;;;;;1.35;1.20;;;;;;;4.03;85.01;102273.41;4989118;28;20038;-72
2023/11/22 06:56:51;;;;;;;1.45;1.33;;;;;;;4.05;84.77;102263.28;4975678;28;20038;-73
2023/11/22 06:59:16;;;;;;;1.30;1.00;;;;;;;4.13;84.49;102268.06;4974887;28;20041;-73
2023/11/22 07:01:42;;;;;;;2.83;1.33;;;;;;;4.11;84.92;102272.06;4990666;28;20026;-73
2023/11/22 07:04:07;;;;;;;1.02;0.95;;;;;;;4.07;84.88;102260.34;4986734;28;20638;-72
2023/11/22 07:06:33;;;;;;;2.60;1.30;;;;;;;4.13;84.97;102253.94;4972883;28;20038;-72
2023/11/22 07:08:59;;;;;;;1.73;1.40;;;;;;;4.14;85.41;102260.88;4994528;28;20030;-73
2023/11/22 07:11:24;;;;;;;2.03;1.10;;;;;;;4.14;85.19;102242.22;4990747;28;20092;-73
2023/11/22 07:13:51;;;;;;;1.08;1.08;;;;;;;4.14;85.55;102252.88;4957024;28;20080;-72
2023/11/22 07:16:18;;;;;;;2.67;1.55;;;;;;;4.17;85.98;102266.44;4959568;28;20030;-72
2023/11/22 07:18:45;;;;;;;4.68;2.10;;;;;;;4.28;86.19;102256.53;4971435;28;20157;-72
2023/11/22 07:21:11;;;;;;;2.60;1.33;;;;;;;4.27;85.87;102265.63;4975780;28;20031;-72
2023/11/22 07:23:38;;;;;;;1.45;1.35;;;;;;;4.32;85.61;102265.59;4973155;28;20405;-73
2023/11/22 07:26:03;;;;;;;1.45;1.23;;;;;;;4.33;85.89;102275.19;4993872;28;20093;-74
2023/11/22 07:28:30;;;;;;;2.83;1.88;;;;;;;4.30;85.91;102291.72;4974455;28;20709;-73
2023/11/22 07:30:56;;;;;;;1.52;1.38;;;;;;;4.30;85.63;102276.53;4992796;28;20105;-72
2023/11/22 07:33:22;;;;;;;3.15;1.60;;;;;;;4.35;86.17;102267.72;4975172;28;20771;-72
2023/11/22 07:35:48;;;;;;;3.63;1.80;;;;;;;4.40;86.25;102270.34;4973885;28;20041;-71
2023/11/22 07:38:14;;;;;;;2.90;1.70;;;;;;;4.36;86.63;102261.31;4989903;28;20752;-72
2023/11/22 07:40:39;;;;;;;2.10;1.90;;;;;;;4.37;86.28;102266.38;4991583;28;20037;-73
2023/11/22 07:43:05;;;;;;;4.13;1.52;;;;;;;4.34;87.31;102280.25;4986595;28;20472;-72
2023/11/22 07:45:31;;;;;;;2.20;1.48;;;;;;;4.39;87.27;102285.56;4985014;28;20037;-70
2023/11/22 07:47:59;;;;;;;2.45;1.42;;;;;;;4.38;87.49;102285.84;4987322;28;20061;-72
2023/11/22 07:50:25;;;;;;;2.38;2.05;;;;;;;4.46;87.18;102296.75;4988767;28;20038;-72
2023/11/22 07:52:51;;;;;;;1.48;1.30;;;;;;;4.50;88.10;102321.00;4990053;28;20042;-72
2023/11/22 07:55:18;;;;;;;1.98;1.33;;;;;;;4.50;87.98;102319.13;4987174;28;20116;-72
2023/11/22 07:57:48;;;;;;;3.28;2.25;;;;;;;4.50;87.53;102324.47;5005200;28;20034;-72
2023/11/22 08:00:19;;;;;;;2.00;1.45;;;;;;;4.50;87.81;102329.00;5003116;28;20093;-72
2023/11/22 08:02:47;;;;;;;2.25;1.55;;;;;;;4.55;87.88;102344.97;4989068;28;20034;-72
2023/11/22 08:05:15;;;;;;;1.95;1.30;;;;;;;4.52;88.55;102346.31;4988899;28;20060;-73
2023/11/22 08:07:41;;;;;;;1.20;1.10;;;;;;;4.60;88.52;102339.63;4987151;28;20109;-73
2023/11/22 08:10:18;;;;;;;3.22;1.77;;;;;;;4.66;88.51;102338.53;4988837;28;20134;-73
2023/11/22 08:12:45;;;;;;;1.23;0.98;;;;;;;4.64;88.23;102329.22;4989158;28;20038;-73
2023/11/22 08:15:12;;;;;;;5.72;2.90;;;;;;;4.67;89.03;102339.31;4992932;28;20077;-73
2023/11/22 08:17:39;;;;;;;1.80;1.70;;;;;;;4.66;88.67;102333.22;4991909;28;20038;-73
2023/11/22 08:20:06;;;;;;;2.42;1.55;;;;;;;4.72;88.78;102321.44;4986462;28;20124;-73
2023/11/22 08:22:35;;;;;;;3.53;1.85;;;;;;;4.82;88.64;102307.25;4990842;28;20042;-71
2023/11/22 08:25:04;;;;;;;3.67;1.88;;;;;;;4.88;88.25;102306.94;4984094;28;20213;-73
2023/11/22 08:27:32;;;;;;;2.35;1.50;;;;;;;4.91;88.42;102314.41;4992394;28;20042;-74
2023/11/22 08:29:58;;;;;;;2.58;1.75;;;;;;;4.92;88.35;102309.84;4995440;28;20057;-73
2023/11/22 08:32:27;;;;;;;3.67;1.50;;;;;;;4.91;88.45;102302.94;4989939;28;20694;-72
2023/11/22 08:34:53;;;;;;;2.00;1.58;;;;;;;4.99;88.26;102302.34;4975266;28;20424;-73
2023/11/22 08:37:18;;;;;;;1.83;1.67;;;;;;;5.02;88.36;102294.59;4988941;28;20042;-73
2023/11/22 08:39:44;;;;;;;5.13;2.15;;;;;;;5.00;87.99;102302.06;4986544;28;20038;-73
2023/11/22 08:42:09;;;;;;;2.90;2.05;;;;;;;4.98;89.07;102314.09;4991539;28;20037;-72
2023/11/22 08:44:36;;;;;;;4.68;2.42;;;;;;;4.94;88.90;102308.50;4973661;28;20076;-72
2023/11/22 08:47:05;;;;;;;1.63;1.55;;;;;;;4.98;89.50;102314.88;4988927;28;20077;-74
2023/11/22 08:49:30;;;;;;;2.53;1.58;;;;;;;5.01;89.92;102319.69;4989171;28;20038;-73
2023/11/22 08:51:56;;;;;;;4.45;1.92;;;;;;;5.02;89.67;102310.59;4992601;28;20076;-73
2023/11/22 08:54:22;;;;;;;1.77;1.42;;;;;;;5.00;89.91;102310.06;4988175;28;20118;-73
2023/11/22 08:56:47;;;;;;;1.50;1.40;;;;;;;5.10;89.61;102312.69;4988632;28;20508;-74
2023/11/22 08:59:13;;;;;;;2.38;1.52;;;;;;;5.23;89.28;102308.59;4972816;28;20124;-72
2023/11/22 09:01:40;;;;;;;3.63;1.27;;;;;;;5.27;89.05;102322.97;4988121;28;20026;-74
2023/11/22 09:04:08;;;;;;;2.53;1.58;;;;;;;5.28;88.56;102320.03;4974944;28;20105;-74
2023/11/22 09:06:34;;;;;;;2.15;1.73;;;;;;;5.23;88.86;102320.06;4988156;28;20141;-74
2023/11/22 09:09:00;;;;;;;1.30;1.20;;;;;;;5.21;88.86;102332.91;4994697;28;20034;-74
2023/11/22 09:11:26;;;;;;;3.20;1.10;;;;;;;5.27;89.03;102322.97;4991594;28;20026;-73
2023/11/22 09:13:53;;;;;;;2.75;1.38;;;;;;;5.27;89.04;102313.09;4987661;28;20488;-73
2023/11/22 09:16:21;;;;;;;2.13;1.63;;;;;;;5.28;89.35;102333.38;4992582;28;20523;-73
2023/11/22 09:18:48;;;;;;;4.18;2.22;;;;;;;5.41;88.31;102313.28;4972508;28;20038;-74
2023/11/22 09:21:14;;;;;;;2.63;1.63;;;;;;;5.32;88.08;102294.38;4994502;28;20120;-73
2023/11/22 09:23:39;;;;;;;1.98;1.40;;;;;;;5.26;88.95;102310.72;4971429;28;20165;-73
2023/11/22 09:26:05;;;;;;;1.83;1.60;;;;;;;5.34;88.61;102302.13;4992026;28;20494;-74
2023/11/22 09:28:31;;;;;;;2.17;1.70;;;;;;;5.32;88.69;102304.28;4989845;28;20038;-73
2023/11/22 09:31:05;;;;;;;1.98;1.67;;;;;;;5.16;89.39;102302.78;4988733;28;20413;-74
2023/11/22 09:33:31;;;;;;;1.70;1.33;;;;;;;5.21;90.33;102308.88;4988501;28;20038;-73
2023/11/22 09:35:58;;;;;;;3.78;1.88;;;;;;;5.24;90.16;102312.88;4994189;28;20061;-72
2023/11/22 09:38:23;;;;;;;2.25;1.73;;;;;;;5.22;90.84;102321.16;4988693;28;20030;-73
2023/11/22 09:40:52;;;;;;;1.38;1.25;;;;;;;5.35;90.41;102336.56;4968219;28;20416;-73
2023/11/22 09:43:20;;;;;;;3.00;1.38;;;;;;;5.43;90.42;102340.50;4985665;28;20030;-72
2023/11/22 09:45:48;;;;;;;2.88;1.77;;;;;;;5.48;90.29;102335.91;4997824;28;20519;-73
2023/11/22 09:48:22;;;;;;;1.80;1.55;;;;;;;5.58;90.06;102343.06;4973570;28;20516;-73
2023/11/22 09:51:04;;;;;;;2.38;2.05;;;;;;;5.62;89.69;102345.97;4970344;28;20529;-73
2023/11/22 09:53:34;;;;;;;2.35;1.77;;;;;;;5.65;89.79;102350.75;4965665;28;20034;-72
2023/11/22 09:56:06;;;;;;;1.65;1.55;;;;;;;5.64;89.55;102347.28;4989340;28;20030;-73
2023/11/22 09:58:33;;;;;;;1.20;1.10;;;;;;;5.67;89.35;102359.31;4968263;28;20515;-71
2023/11/22 10:00:59;;;;;;;3.83;2.10;;;;;;;5.69;89.23;102354.47;4995143;28;20532;-74
2023/11/22 10:03:28;;;;;;;2.80;1.40;;;;;;;5.69;89.19;102341.88;4990828;28;20424;-73
2023/11/22 10:05:58;;;;;;;1.83;1.73;;;;;;;5.65;89.51;102340.06;4972659;28;20412;-72
2023/11/22 10:08:27;;;;;;;2.20;1.60;;;;;;;5.68;89.60;102348.31;4959633;28;20030;-73
2023/11/22 10:10:57;;;;;;;1.90;1.67;;;;;;;5.60;89.44;102343.56;4974490;28;20042;-73
2023/11/22 10:13:22;;;;;;;2.58;1.58;;;;;;;5.69;89.65;102351.81;4969542;28;20035;-74
2023/11/22 10:15:52;;;;;;;2.70;1.80;;;;;;;5.71;89.76;102338.97;4976090;28;20421;-72
2023/11/22 10:18:19;;;;;;;1.20;1.10;;;;;;;5.77;89.46;102338.63;4976895;28;20041;-72
2023/11/22 10:20:52;;;;;;;3.80;2.40;;;;;;;5.70;89.19;102332.81;4972980;28;20077;-73
2023/11/22 10:23:28;;;;;;;2.10;1.75;;;;;;;5.74;89.57;102323.16;4991118;28;20043;-73
2023/11/22 10:25:54;;;;;;;6.38;1.90;;;;;;;5.85;89.66;102315.84;4976579;28;20077;-74
2023/11/22 10:28:21;;;;;;;4.75;2.25;;;;;;;5.95;89.09;102311.22;4983164;28;20057;-72
2023/11/22 10:30:47;;;;;;;2.67;2.42;;;;;;;5.99;88.83;102303.44;4992559;28;20102;-74
2023/11/22 10:33:14;;;;;;;1.55;1.20;;;;;;;5.87;89.52;102300.34;4989301;28;20537;-74
2023/11/22 10:35:48;;;;;;;1.95;1.60;;;;;;;5.91;90.43;102309.38;4999516;28;20041;-74
2023/11/22 10:38:20;;;;;;;2.22;1.42;;;;;;;6.05;90.02;102296.97;4987712;28;20182;-74
2023/11/22 10:40:47;;;;;;;3.05;1.85;;;;;;;6.03;89.61;102275.06;4991636;28;20050;-74
2023/11/22 10:43:14;;;;;;;4.60;2.90;;;;;;;6.12;89.65;102279.50;4993614;28;20421;-73
2023/11/22 10:45:44;;;;;;;4.25;1.67;;;;;;;6.14;89.84;102281.88;4974270;28;20517;-73
2023/11/22 10:48:11;;;;;;;1.88;1.63;;;;;;;6.19;90.22;102279.16;4993748;28;20109;-73
2023/11/22 10:50:39;;;;;;;3.40;1.98;;;;;;;6.22;89.73;102262.53;4989763;28;20034;-74
2023/11/22 10:53:07;;;;;;;2.58;1.58;;;;;;;6.27;88.92;102263.28;4993768;28;20030;-75
2023/11/22 10:55:34;;;;;;;1.50;1.25;;;;;;;6.32;89.31;102271.25;4972892;28;20547;-72
2023/11/22 10:58:04;;;;;;;1.23;1.13;;;;;;;6.36;88.34;102258.09;4996138;28;20504;-74
2023/11/22 11:00:32;;;;;;;2.55;1.50;;;;;;;6.45;87.96;102248.34;4976360;28;20034;-74
2023/11/22 11:03:10;;;;;;;3.03;1.42;;;;;;;6.51;85.52;102247.19;4975039;28;20117;-74
2023/11/22 11:05:38;;;;;;;1.98;1.50;;;;;;;6.44;83.88;102238.72;4994242;28;20097;-73
2023/11/22 11:08:15;;;;;;;2.20;1.83;;;;;;;6.43;83.87;102229.09;4992579;28;20037;-73
2023/11/22 11:10:45;;;;;;;3.85;1.63;;;;;;;6.37;82.83;102230.25;4991946;28;20065;-73
2023/11/22 11:13:12;;;;;;;2.15;1.33;;;;;;;6.36;83.48;102215.28;4958842;28;20128;-74
2023/11/22 11:15:44;;;;;;;5.20;2.13;;;;;;;6.44;81.00;102208.50;4959203;28;20030;-73
2023/11/22 11:18:15;;;;;;;1.67;1.52;;;;;;;6.33;82.21;102210.50;4973685;28;20046;-74
2023/11/22 11:20:51;;;;;;;1.27;1.13;;;;;;;6.34;82.83;102204.09;4992648;28;20038;-73
2023/11/22 11:23:22;;;;;;;1.83;1.50;;;;;;;6.41;81.19;102204.50;4980265;28;20037;-73
2023/11/22 11:25:49;;;;;;;;;;;;;;;6.31;81.70;102194.75;4992418;28;20037;-72
2023/11/22 11:28:14;;;;;;;1.50;1.13;;;;;;;6.34;82.75;102170.09;4989283;28;20377;-74
2023/11/22 11:30:49;;;;;;;5.90;2.40;;;;;;;6.40;81.86;102144.06;4968898;28;20035;-74
2023/11/22 11:33:18;;;;;;;4.32;1.90;;;;;;;6.41;80.01;102140.31;4975798;28;20026;-73